Turkey, North Carolina
Current Conditions -  °F | °C
As of 1:15 PM on Wednesday 26 Nov 2014 (Local Time) from KCTZ Reporting Station
Overcast Overcast  
Wind Chill: 44°   Ceiling: 1400
Heat Index: 48°   Visibility: 10mi
Dew Point: 46°   Wind: 10mph
Humidity: 93%   Direction: 290°WNW
Pressure: 29.93"   Gusts: NA
Location:  34.99°N, 78.18°W
Report Text: KCTZ 261815Z AUTO 29009KT 10SM OVC014 09/08 A2993 RMK AO2 T00910080
Loading
Personal Weather Stations






























Interactive Weather Map New forecast layout! Learn more

10-Day Weather Forecast

Advertisements
Track Severe Weather on mobile